Time;durP1;ratioP1;P1;durP2;ratioP2;P2;SDS_P1;SDS_P2;PMS_P1;PMS_P2;Temp;Humidity;BMP_temperature;BMP_pressure;BME280_temperature;BME280_humidity;BME280_pressure;Samples;Min_cycle;Max_cycle;Signal;HPM_P1;HPM_P2
2023/07/19 02:01:09;;;;;;;5.07;2.22;;;;;;;;;;4702326;28;20079;-75
2023/07/19 02:03:36;;;;;;;3.70;2.25;;;;;;;;;;4280465;33;20049;-77
2023/07/19 02:06:02;;;;;;;8.55;2.25;;;;;;;;;;4280528;33;20068;-77
2023/07/19 02:08:28;;;;;;;5.55;2.95;;;;;;;;;;4264523;33;20045;-76
2023/07/19 02:10:54;;;;;;;3.78;2.30;;;;;;;;;;4235712;33;20038;-76
2023/07/19 02:13:20;;;;;;;9.40;2.40;;;;;;;;;;4236241;33;20046;-75
2023/07/19 02:15:47;;;;;;;3.80;1.75;;;;;;;;;;4234416;33;20156;-76
2023/07/19 02:18:13;;;;;;;3.05;2.08;;;;;;;;;;4236072;33;20079;-75
2023/07/19 02:20:50;;;;;;;3.45;1.90;;;;;;;;;;4235461;33;20035;-75
2023/07/19 02:23:18;;;;;;;3.55;1.95;;;;;;;;;;4237318;33;20058;-74
2023/07/19 02:25:47;;;;;;;2.17;1.92;;;;;;;;;;4234209;33;20449;-75
2023/07/19 02:28:14;;;;;;;12.02;2.92;;;;;;;;;;4236765;33;20046;-76
2023/07/19 02:30:43;;;;;;;3.47;2.30;;;;;;;;;;4236911;33;20042;-75
2023/07/19 02:33:13;;;;;;;3.60;2.00;;;;;;;;;;4236088;33;20046;-74
2023/07/19 02:35:39;;;;;;;6.18;2.83;;;;;;;;;;4233082;33;20397;-76
2023/07/19 02:38:06;;;;;;;3.22;1.52;;;;;;;;;;4235466;33;20057;-77
2023/07/19 02:40:32;;;;;;;3.83;1.77;;;;;;;;;;4248658;33;20039;-77
2023/07/19 02:42:59;;;;;;;1.98;1.80;;;;;;;;;;4278390;33;20033;-77
2023/07/19 02:45:25;;;;;;;6.03;2.22;;;;;;;;;;4249138;33;20050;-77
2023/07/19 02:47:52;;;;;;;7.30;1.95;;;;;;;;;;4249445;33;20037;-76
2023/07/19 02:50:18;;;;;;;2.00;1.90;;;;;;;;;;4250253;33;20485;-75
2023/07/19 02:52:45;;;;;;;3.47;1.80;;;;;;;;;;4250165;33;20072;-76
2023/07/19 02:55:11;;;;;;;1.90;1.80;;;;;;;;;;4250030;33;20173;-76
2023/07/19 02:57:38;;;;;;;2.45;1.67;;;;;;;;;;4248070;33;20168;-78
2023/07/19 03:00:06;;;;;;;2.90;1.55;;;;;;;;;;4250820;33;20050;-76
2023/07/19 03:02:33;;;;;;;4.22;1.75;;;;;;;;;;4249021;33;20068;-76
2023/07/19 03:04:59;;;;;;;1.95;1.77;;;;;;;;;;4235115;33;20034;-75
2023/07/19 03:07:26;;;;;;;3.58;1.30;;;;;;;;;;4234422;33;20058;-77
2023/07/19 03:09:52;;;;;;;1.55;1.30;;;;;;;;;;4234283;33;20089;-75
2023/07/19 03:12:25;;;;;;;3.25;1.33;;;;;;;;;;4236007;33;20065;-75
2023/07/19 03:14:52;;;;;;;6.37;1.70;;;;;;;;;;4235591;33;20476;-76
2023/07/19 03:17:18;;;;;;;6.82;1.70;;;;;;;;;;4257927;33;20463;-76
2023/07/19 03:19:47;;;;;;;5.10;1.60;;;;;;;;;;4234106;33;20059;-77
2023/07/19 03:22:14;;;;;;;2.85;1.42;;;;;;;;;;4234596;33;20097;-75
2023/07/19 03:24:40;;;;;;;4.25;1.90;;;;;;;;;;4234924;33;20047;-76
2023/07/19 03:27:07;;;;;;;2.33;1.48;;;;;;;;;;4206911;34;20452;-75
2023/07/19 03:29:34;;;;;;;7.62;2.17;;;;;;;;;;4193265;34;20058;-75
2023/07/19 03:32:00;;;;;;;5.07;1.70;;;;;;;;;;4191767;34;20059;-75
2023/07/19 03:34:28;;;;;;;4.32;2.08;;;;;;;;;;4194456;34;21216;-75
2023/07/19 03:36:54;;;;;;;3.45;1.83;;;;;;;;;;4181835;34;20096;-75
2023/07/19 03:39:20;;;;;;;3.67;1.45;;;;;;;;;;4166270;34;20465;-75
2023/07/19 03:41:47;;;;;;;6.35;1.60;;;;;;;;;;4167519;34;20349;-75
2023/07/19 03:44:13;;;;;;;3.30;1.73;;;;;;;;;;4166501;34;20502;-75
2023/07/19 03:46:40;;;;;;;5.10;2.42;;;;;;;;;;4180867;34;20056;-75
2023/07/19 03:49:06;;;;;;;9.07;1.87;;;;;;;;;;4181058;34;20040;-76
2023/07/19 03:51:32;;;;;;;8.63;2.53;;;;;;;;;;4191395;34;20482;-75
2023/07/19 03:53:58;;;;;;;5.28;2.22;;;;;;;;;;4167757;34;20416;-74
2023/07/19 03:56:25;;;;;;;9.30;2.62;;;;;;;;;;4170445;34;20052;-75
2023/07/19 03:58:51;;;;;;;5.85;2.22;;;;;;;;;;4156319;34;20044;-75
2023/07/19 04:01:18;;;;;;;5.40;2.28;;;;;;;;;;4174975;34;20076;-76
2023/07/19 04:03:44;;;;;;;10.57;2.65;;;;;;;;;;4179784;34;20085;-76
2023/07/19 04:06:11;;;;;;;13.48;2.50;;;;;;;;;;4176641;34;20043;-76
2023/07/19 04:08:37;;;;;;;3.25;1.67;;;;;;;;;;4180331;34;20067;-76
2023/07/19 04:11:03;;;;;;;10.55;2.17;;;;;;;;;;4189368;34;20356;-75
2023/07/19 04:13:29;;;;;;;11.98;2.12;;;;;;;;;;4193049;34;20031;-75
2023/07/19 04:15:56;;;;;;;8.05;2.78;;;;;;;;;;4191903;34;20405;-77
2023/07/19 04:18:23;;;;;;;10.95;2.53;;;;;;;;;;4202159;34;20294;-76
2023/07/19 04:20:54;;;;;;;8.57;2.53;;;;;;;;;;4192255;34;20591;-77
2023/07/19 04:23:20;;;;;;;10.25;2.00;;;;;;;;;;4167817;34;20036;-77
2023/07/19 04:25:48;;;;;;;4.82;2.50;;;;;;;;;;4177619;34;20392;-78
2023/07/19 04:28:14;;;;;;;7.40;2.50;;;;;;;;;;4167017;34;20066;-76
2023/07/19 04:30:41;;;;;;;6.40;2.37;;;;;;;;;;4179234;34;20078;-77
2023/07/19 04:33:08;;;;;;;5.22;1.60;;;;;;;;;;4154496;34;20388;-76
2023/07/19 04:35:34;;;;;;;6.32;1.80;;;;;;;;;;4154748;34;20625;-77
2023/07/19 04:38:00;;;;;;;3.22;1.60;;;;;;;;;;4163392;34;20401;-78
2023/07/19 04:40:27;;;;;;;3.33;1.87;;;;;;;;;;4167767;34;21268;-75
2023/07/19 04:42:53;;;;;;;6.40;1.75;;;;;;;;;;4167213;34;20086;-76
2023/07/19 04:45:20;;;;;;;9.10;2.37;;;;;;;;;;4156195;34;20545;-77
2023/07/19 04:47:47;;;;;;;5.07;2.22;;;;;;;;;;4167486;34;20044;-76
2023/07/19 04:50:13;;;;;;;4.28;1.58;;;;;;;;;;4138593;34;20085;-77
2023/07/19 04:52:39;;;;;;;2.83;1.25;;;;;;;;;;4160971;34;20062;-77
2023/07/19 04:55:06;;;;;;;2.00;1.60;;;;;;;;;;4188468;34;20067;-77
2023/07/19 04:57:32;;;;;;;11.48;1.67;;;;;;;;;;4194768;34;20316;-76
2023/07/19 04:59:58;;;;;;;3.28;2.37;;;;;;;;;;4191634;34;20074;-76
2023/07/19 05:02:25;;;;;;;9.98;2.20;;;;;;;;;;4179868;34;20056;-76
2023/07/19 05:04:52;;;;;;;4.82;1.50;;;;;;;;;;4169637;34;20077;-77
2023/07/19 05:07:20;;;;;;;6.47;1.80;;;;;;;;;;4180600;34;20045;-77
2023/07/19 05:09:46;;;;;;;2.95;1.62;;;;;;;;;;4180748;34;20073;-76
2023/07/19 05:12:12;;;;;;;1.75;1.23;;;;;;;;;;4181006;34;20080;-76
2023/07/19 05:14:51;;;;;;;5.62;1.62;;;;;;;;;;4206142;34;20464;-77
2023/07/19 05:17:28;;;;;;;4.00;1.60;;;;;;;;;;4195925;34;20452;-77
2023/07/19 05:19:54;;;;;;;4.00;1.80;;;;;;;;;;4192735;34;20486;-77
2023/07/19 05:22:21;;;;;;;6.50;2.20;;;;;;;;;;4220081;33;20072;-77
2023/07/19 05:24:47;;;;;;;12.13;2.65;;;;;;;;;;4209556;34;20133;-77
2023/07/19 05:27:16;;;;;;;11.07;1.80;;;;;;;;;;4183667;34;20496;-77
2023/07/19 05:29:44;;;;;;;3.30;1.90;;;;;;;;;;4166784;34;20055;-79
2023/07/19 05:32:16;;;;;;;11.27;2.78;;;;;;;;;;4194865;34;20043;-77
2023/07/19 05:34:43;;;;;;;10.02;2.20;;;;;;;;;;4195049;34;20077;-77
2023/07/19 05:37:09;;;;;;;5.72;1.67;;;;;;;;;;4193910;34;20039;-77
2023/07/19 05:39:35;;;;;;;6.53;2.55;;;;;;;;;;4192815;34;20066;-78
2023/07/19 05:42:02;;;;;;;6.95;1.33;;;;;;;;;;4194789;34;20065;-77
2023/07/19 05:44:28;;;;;;;4.87;1.40;;;;;;;;;;4207877;34;20072;-78
2023/07/19 05:46:55;;;;;;;5.68;2.72;;;;;;;;;;4212350;34;20035;-77
2023/07/19 05:49:22;;;;;;;7.30;2.12;;;;;;;;;;4221472;34;20077;-78
2023/07/19 05:51:48;;;;;;;8.15;1.40;;;;;;;;;;4215697;34;20085;-77
2023/07/19 05:54:15;;;;;;;3.40;1.52;;;;;;;;;;4220795;34;20479;-79
2023/07/19 05:56:41;;;;;;;7.28;1.52;;;;;;;;;;4245664;33;20550;-76
2023/07/19 05:59:08;;;;;;;7.20;1.52;;;;;;;;;;4235242;33;20209;-78
2023/07/19 06:01:34;;;;;;;5.03;1.50;;;;;;;;;;4235854;33;20448;-78
2023/07/19 06:04:01;;;;;;;2.92;1.60;;;;;;;;;;4235654;33;20062;-79
2023/07/19 06:06:27;;;;;;;7.28;1.75;;;;;;;;;;4233560;33;20080;-78
2023/07/19 06:08:53;;;;;;;2.30;1.55;;;;;;;;;;4221348;34;20047;-78
2023/07/19 06:11:19;;;;;;;8.07;1.60;;;;;;;;;;4220969;34;20076;-80
2023/07/19 06:13:46;;;;;;;7.68;1.67;;;;;;;;;;4221489;34;20505;-77
2023/07/19 06:16:12;;;;;;;4.65;1.25;;;;;;;;;;4218955;34;20039;-77
2023/07/19 06:18:38;;;;;;;3.37;1.35;;;;;;;;;;4193885;34;21033;-77
2023/07/19 06:21:04;;;;;;;4.22;2.50;;;;;;;;;;4194094;34;20047;-76
2023/07/19 06:23:30;;;;;;;4.75;1.40;;;;;;;;;;4191664;34;20048;-77
2023/07/19 06:25:57;;;;;;;4.22;1.30;;;;;;;;;;4175640;34;20206;-76
2023/07/19 06:28:23;;;;;;;6.55;1.70;;;;;;;;;;4164494;34;20187;-78
2023/07/19 06:30:49;;;;;;;2.12;1.15;;;;;;;;;;4179296;34;20070;-77
2023/07/19 06:33:15;;;;;;;5.10;1.23;;;;;;;;;;4169619;34;20082;-77
2023/07/19 06:35:43;;;;;;;5.18;1.17;;;;;;;;;;4179369;34;20048;-77
2023/07/19 06:38:09;;;;;;;2.53;1.60;;;;;;;;;;4149000;34;20060;-78
2023/07/19 06:40:35;;;;;;;3.22;1.52;;;;;;;;;;4150027;34;20058;-77
2023/07/19 06:43:01;;;;;;;4.62;1.60;;;;;;;;;;4159945;34;20059;-77
2023/07/19 06:45:27;;;;;;;2.62;1.37;;;;;;;;;;4179309;34;20072;-76
2023/07/19 06:47:54;;;;;;;2.10;1.60;;;;;;;;;;4179194;34;20047;-77
2023/07/19 06:50:20;;;;;;;8.85;2.37;;;;;;;;;;4179618;34;20452;-76
2023/07/19 06:52:46;;;;;;;9.20;1.67;;;;;;;;;;4163858;34;20047;-79
2023/07/19 06:55:13;;;;;;;3.90;1.65;;;;;;;;;;4167427;34;21038;-76
2023/07/19 06:57:40;;;;;;;2.97;1.33;;;;;;;;;;4152320;34;20053;-76
2023/07/19 07:00:06;;;;;;;3.42;1.62;;;;;;;;;;4155704;34;20405;-77
2023/07/19 07:02:33;;;;;;;7.00;2.08;;;;;;;;;;4130681;34;20052;-77
2023/07/19 07:05:00;;;;;;;6.95;1.80;;;;;;;;;;4150019;34;20503;-77
2023/07/19 07:07:26;;;;;;;10.30;1.75;;;;;;;;;;4151693;34;20160;-78
2023/07/19 07:09:53;;;;;;;15.15;2.37;;;;;;;;;;4152158;34;20074;-78
2023/07/19 07:12:20;;;;;;;4.85;1.98;;;;;;;;;;4141271;34;20045;-78
2023/07/19 07:14:45;;;;;;;5.90;2.10;;;;;;;;;;4139112;34;20032;-77
2023/07/19 07:17:12;;;;;;;10.70;2.22;;;;;;;;;;4160436;34;20102;-78
2023/07/19 07:19:38;;;;;;;2.78;1.70;;;;;;;;;;4166951;34;20070;-76
2023/07/19 07:22:05;;;;;;;3.47;1.80;;;;;;;;;;4165984;34;20400;-75
2023/07/19 07:24:31;;;;;;;2.30;1.70;;;;;;;;;;4178992;34;20440;-76
2023/07/19 07:26:57;;;;;;;10.70;1.83;;;;;;;;;;4179602;34;20532;-77
2023/07/19 07:29:24;;;;;;;2.17;1.60;;;;;;;;;;4190871;34;20423;-77
2023/07/19 07:31:50;;;;;;;3.40;1.30;;;;;;;;;;4193492;34;20080;-75
2023/07/19 07:34:16;;;;;;;3.40;1.60;;;;;;;;;;4192593;34;20028;-75
2023/07/19 07:36:43;;;;;;;3.28;1.60;;;;;;;;;;4227734;33;20491;-77
2023/07/19 07:39:11;;;;;;;1.95;1.42;;;;;;;;;;4235334;33;20537;-77
2023/07/19 07:41:37;;;;;;;1.37;1.25;;;;;;;;;;4232921;33;20042;-77
2023/07/19 07:44:03;;;;;;;13.35;1.42;;;;;;;;;;4207140;34;20054;-78
2023/07/19 07:46:35;;;;;;;4.85;1.20;;;;;;;;;;4207030;34;20063;-77
2023/07/19 07:49:02;;;;;;;4.97;1.40;;;;;;;;;;4195833;34;20441;-78
2023/07/19 07:51:29;;;;;;;2.65;1.60;;;;;;;;;;4190544;34;20078;-78
2023/07/19 07:53:56;;;;;;;5.55;2.15;;;;;;;;;;4179073;34;20818;-78
2023/07/19 07:56:23;;;;;;;1.67;1.58;;;;;;;;;;4190607;34;20055;-78
2023/07/19 07:58:49;;;;;;;3.67;1.60;;;;;;;;;;4195761;34;20495;-78
2023/07/19 08:01:16;;;;;;;1.73;1.40;;;;;;;;;;4205690;34;20058;-78
2023/07/19 08:03:42;;;;;;;2.22;1.20;;;;;;;;;;4209180;34;20065;-76
2023/07/19 08:06:08;;;;;;;2.58;2.08;;;;;;;;;;4209087;34;20396;-77
2023/07/19 08:08:34;;;;;;;10.60;1.58;;;;;;;;;;4220745;34;20072;-77
2023/07/19 08:11:05;;;;;;;11.50;1.40;;;;;;;;;;4203364;34;20043;-78
2023/07/19 08:13:31;;;;;;;8.88;1.58;;;;;;;;;;4181024;34;20048;-79
2023/07/19 08:15:57;;;;;;;6.93;1.48;;;;;;;;;;4180578;34;20028;-78
2023/07/19 08:18:24;;;;;;;2.12;1.10;;;;;;;;;;4182437;34;20059;-78
2023/07/19 08:20:50;;;;;;;1.95;1.55;;;;;;;;;;4186834;34;20027;-77
2023/07/19 08:23:17;;;;;;;6.72;1.48;;;;;;;;;;4209435;34;20093;-77
2023/07/19 08:25:43;;;;;;;8.10;5.82;;;;;;;;;;4196627;34;20065;-77
2023/07/19 08:28:09;;;;;;;2.90;1.77;;;;;;;;;;4181441;34;20056;-76
2023/07/19 08:30:35;;;;;;;2.12;1.27;;;;;;;;;;4168043;34;20069;-75
2023/07/19 08:33:08;;;;;;;8.60;1.60;;;;;;;;;;4158226;34;20048;-77
2023/07/19 08:35:34;;;;;;;;;;;;;;;;;;4154868;34;20033;-76
2023/07/19 08:38:00;;;;;;;11.32;1.60;;;;;;;;;;4152221;34;20007;-78
2023/07/19 08:40:28;;;;;;;2.95;1.30;;;;;;;;;;4141621;34;20055;-75
2023/07/19 08:42:55;;;;;;;5.78;1.90;;;;;;;;;;4179100;34;20047;-77
2023/07/19 08:45:23;;;;;;;3.45;1.12;;;;;;;;;;4156625;34;20045;-75
2023/07/19 08:47:50;;;;;;;1.55;1.45;;;;;;;;;;4154079;34;20066;-76
2023/07/19 08:50:16;;;;;;;2.97;1.40;;;;;;;;;;4152109;34;20044;-77
2023/07/19 08:52:43;;;;;;;3.28;1.23;;;;;;;;;;4153630;34;20056;-76
2023/07/19 08:55:09;;;;;;;6.80;1.50;;;;;;;;;;4154048;34;20037;-76
2023/07/19 08:57:41;;;;;;;5.55;2.17;;;;;;;;;;4164926;34;20584;-76
2023/07/19 09:00:08;;;;;;;2.33;1.55;;;;;;;;;;4179691;34;20075;-84
2023/07/19 09:02:35;;;;;;;5.20;1.52;;;;;;;;;;4191406;34;20462;-78
2023/07/19 09:05:08;;;;;;;1.67;1.35;;;;;;;;;;4209969;34;20076;-78
2023/07/19 09:07:34;;;;;;;4.12;1.75;;;;;;;;;;4208956;34;20077;-78
2023/07/19 09:10:00;;;;;;;4.37;1.25;;;;;;;;;;4167253;34;20032;-76
2023/07/19 09:12:34;;;;;;;1.48;1.37;;;;;;;;;;4166239;34;20070;-79
2023/07/19 09:15:00;;;;;;;1.85;1.70;;;;;;;;;;4168407;34;20048;-78
2023/07/19 09:17:30;;;;;;;5.97;1.40;;;;;;;;;;4192947;34;20055;-76
2023/07/19 09:19:56;;;;;;;2.92;2.17;;;;;;;;;;4195055;34;20027;-76
2023/07/19 09:22:26;;;;;;;9.55;2.60;;;;;;;;;;4182432;34;20055;-78
2023/07/19 09:24:54;;;;;;;3.20;1.77;;;;;;;;;;4206780;34;20098;-76
2023/07/19 09:27:27;;;;;;;11.00;1.95;;;;;;;;;;4207552;34;20450;-76
2023/07/19 09:29:59;;;;;;;5.70;4.07;;;;;;;;;;4194842;34;20112;-76
2023/07/19 09:32:26;;;;;;;3.60;1.60;;;;;;;;;;4181710;34;20035;-78
2023/07/19 09:34:54;;;;;;;3.37;1.60;;;;;;;;;;4180244;34;20408;-76
2023/07/19 09:37:21;;;;;;;17.23;2.53;;;;;;;;;;4180319;34;20055;-77
2023/07/19 09:39:48;;;;;;;7.60;1.60;;;;;;;;;;4180754;34;20493;-76
2023/07/19 09:42:14;;;;;;;4.87;1.65;;;;;;;;;;4193179;34;20198;-78
2023/07/19 09:44:40;;;;;;;1.98;1.65;;;;;;;;;;4194197;34;20063;-76
2023/07/19 09:47:09;;;;;;;4.30;1.40;;;;;;;;;;4208157;34;20054;-78
2023/07/19 09:49:36;;;;;;;5.45;1.37;;;;;;;;;;4207972;34;20121;-76
2023/07/19 09:52:03;;;;;;;2.05;1.37;;;;;;;;;;4207540;34;20072;-76
2023/07/19 09:54:32;;;;;;;2.70;1.50;;;;;;;;;;4205736;34;20085;-78
2023/07/19 09:56:59;;;;;;;3.78;2.03;;;;;;;;;;4207696;34;20095;-76
2023/07/19 09:59:27;;;;;;;2.70;1.40;;;;;;;;;;4193785;34;20036;-76
2023/07/19 10:01:54;;;;;;;2.15;1.40;;;;;;;;;;4192973;34;20065;-77
2023/07/19 10:04:27;;;;;;;2.90;1.58;;;;;;;;;;4192515;34;20051;-77
2023/07/19 10:07:04;;;;;;;1.35;1.27;;;;;;;;;;4180058;34;20060;-76
2023/07/19 10:09:31;;;;;;;2.70;1.42;;;;;;;;;;4167278;34;20044;-76
2023/07/19 10:11:58;;;;;;;2.47;1.37;;;;;;;;;;4170697;34;20183;-77
2023/07/19 10:14:27;;;;;;;2.35;1.90;;;;;;;;;;4178397;34;20051;-77
2023/07/19 10:16:57;;;;;;;3.05;2.08;;;;;;;;;;4179919;34;20055;-77
2023/07/19 10:19:24;;;;;;;1.80;1.70;;;;;;;;;;4193154;34;20036;-76
2023/07/19 10:22:07;;;;;;;3.95;1.50;;;;;;;;;;4193142;34;20455;-78
2023/07/19 10:24:36;;;;;;;1.30;1.25;;;;;;;;;;4194081;34;20160;-76
2023/07/19 10:27:03;;;;;;;2.12;1.80;;;;;;;;;;4193712;34;20490;-76
2023/07/19 10:29:39;;;;;;;10.13;2.20;;;;;;;;;;4193715;34;20043;-76
2023/07/19 10:32:06;;;;;;;2.58;1.42;;;;;;;;;;4193901;34;20913;-77
2023/07/19 10:34:32;;;;;;;4.35;1.92;;;;;;;;;;4194013;34;20039;-75
2023/07/19 10:37:02;;;;;;;2.83;1.50;;;;;;;;;;4180538;34;20495;-77
2023/07/19 10:39:29;;;;;;;1.67;1.58;;;;;;;;;;4193355;34;20120;-77
2023/07/19 10:41:56;;;;;;;2.70;1.75;;;;;;;;;;4191831;34;20058;-77
2023/07/19 10:44:22;;;;;;;2.55;1.52;;;;;;;;;;4179743;34;20075;-77
2023/07/19 10:46:48;;;;;;;1.60;1.50;;;;;;;;;;4168573;34;20784;-76
2023/07/19 10:49:15;;;;;;;5.75;1.70;;;;;;;;;;4179775;34;20379;-77
2023/07/19 10:51:59;;;;;;;4.15;1.60;;;;;;;;;;4152350;34;20043;-75
2023/07/19 10:54:28;;;;;;;3.08;1.60;;;;;;;;;;4166593;34;20040;-76
2023/07/19 10:56:57;;;;;;;7.70;1.80;;;;;;;;;;4165859;34;20057;-76
2023/07/19 10:59:23;;;;;;;4.78;1.37;;;;;;;;;;4166285;34;20066;-76
2023/07/19 11:01:49;;;;;;;7.28;1.70;;;;;;;;;;4316835;28;20191;-76
2023/07/19 11:04:18;;;;;;;1.55;1.45;;;;;;;;;;4179773;34;20454;-76
2023/07/19 11:06:55;;;;;;;15.77;1.50;;;;;;;;;;4177686;34;20048;-77
2023/07/19 11:09:22;;;;;;;5.12;1.40;;;;;;;;;;4165880;34;20039;-76
2023/07/19 11:11:52;;;;;;;3.42;1.58;;;;;;;;;;4165984;34;20047;-76
2023/07/19 11:14:28;;;;;;;6.40;2.20;;;;;;;;;;4166092;34;20488;-77
2023/07/19 11:16:55;;;;;;;2.05;1.73;;;;;;;;;;4165631;34;20394;-76
2023/07/19 11:19:38;;;;;;;9.15;2.60;;;;;;;;;;4165974;34;20052;-76
2023/07/19 11:22:06;;;;;;;2.58;1.70;;;;;;;;;;4153404;34;20211;-76
2023/07/19 11:24:39;;;;;;;2.22;1.70;;;;;;;;;;4166844;34;20036;-77
2023/07/19 11:27:08;;;;;;;5.28;1.75;;;;;;;;;;4169529;34;20091;-76
2023/07/19 11:29:35;;;;;;;1.85;1.73;;;;;;;;;;4193270;34;20179;-77
2023/07/19 11:32:18;;;;;;;4.03;2.20;;;;;;;;;;4192702;34;20069;-76
2023/07/19 11:34:48;;;;;;;6.80;1.70;;;;;;;;;;4192341;34;20067;-77
2023/07/19 11:37:17;;;;;;;2.53;1.40;;;;;;;;;;4193049;34;20217;-76
2023/07/19 11:39:43;;;;;;;4.25;2.22;;;;;;;;;;4192999;34;20035;-76
2023/07/19 11:42:09;;;;;;;2.00;1.87;;;;;;;;;;4165288;34;20060;-76
2023/07/19 11:44:42;;;;;;;2.37;1.70;;;;;;;;;;4163574;34;20108;-76
2023/07/19 11:47:09;;;;;;;2.60;1.48;;;;;;;;;;4165737;34;20041;-78
2023/07/19 11:49:35;;;;;;;1.60;1.50;;;;;;;;;;4165899;34;20048;-77
2023/07/19 11:52:02;;;;;;;1.77;1.50;;;;;;;;;;4166128;34;20060;-76
2023/07/19 11:54:28;;;;;;;3.72;2.12;;;;;;;;;;4190983;34;20159;-76
2023/07/19 11:56:55;;;;;;;5.93;2.00;;;;;;;;;;4192752;34;20093;-76
2023/07/19 11:59:23;;;;;;;2.40;2.25;;;;;;;;;;4206565;34;20073;-76
2023/07/19 12:01:49;;;;;;;6.35;1.75;;;;;;;;;;4205847;34;20073;-77
2023/07/19 12:04:16;;;;;;;1.95;1.27;;;;;;;;;;4178921;34;20051;-77
2023/07/19 12:06:42;;;;;;;2.70;1.90;;;;;;;;;;4162730;34;20432;-79
2023/07/19 12:09:09;;;;;;;1.80;1.70;;;;;;;;;;4151692;34;20610;-76
2023/07/19 12:11:36;;;;;;;1.62;1.48;;;;;;;;;;4152133;34;20056;-77
2023/07/19 12:14:02;;;;;;;7.55;1.75;;;;;;;;;;4165209;34;20043;-77
2023/07/19 12:16:28;;;;;;;3.17;1.73;;;;;;;;;;4165114;34;20932;-79
2023/07/19 12:18:54;;;;;;;13.02;2.50;;;;;;;;;;4165060;34;20045;-77
2023/07/19 12:21:21;;;;;;;5.65;2.35;;;;;;;;;;4165412;34;20044;-77
2023/07/19 12:23:47;;;;;;;2.47;1.45;;;;;;;;;;4165084;34;20040;-78
2023/07/19 12:26:14;;;;;;;3.37;1.60;;;;;;;;;;4164907;34;20573;-76
2023/07/19 12:28:40;;;;;;;11.23;1.60;;;;;;;;;;4153287;34;20080;-78
2023/07/19 12:31:08;;;;;;;8.05;2.17;;;;;;;;;;4160862;34;20043;-77
2023/07/19 12:33:37;;;;;;;3.03;1.75;;;;;;;;;;4165573;34;20119;-78
2023/07/19 12:36:04;;;;;;;8.90;2.22;;;;;;;;;;4187263;34;20089;-77
2023/07/19 12:38:30;;;;;;;5.90;1.75;;;;;;;;;;4143817;34;20065;-76
2023/07/19 12:40:57;;;;;;;2.30;1.60;;;;;;;;;;4147798;34;20095;-77
2023/07/19 12:43:23;;;;;;;1.85;1.75;;;;;;;;;;4153840;34;20060;-77
2023/07/19 12:45:49;;;;;;;2.12;1.73;;;;;;;;;;4187444;34;20427;-76
2023/07/19 12:48:16;;;;;;;4.35;3.10;;;;;;;;;;4170023;34;20048;-76
2023/07/19 12:50:42;;;;;;;2.60;2.00;;;;;;;;;;4156131;34;20052;-76
2023/07/19 12:53:08;;;;;;;11.75;1.95;;;;;;;;;;4153994;34;20064;-78
2023/07/19 12:55:35;;;;;;;2.12;2.00;;;;;;;;;;4156988;34;20106;-77
2023/07/19 12:58:01;;;;;;;8.75;1.60;;;;;;;;;;4157072;34;20100;-78
2023/07/19 13:00:27;;;;;;;3.08;1.77;;;;;;;;;;4159894;34;20040;-76
2023/07/19 13:02:53;;;;;;;5.55;1.60;;;;;;;;;;4169924;34;20063;-78
2023/07/19 13:05:20;;;;;;;4.03;1.77;;;;;;;;;;4154944;34;20074;-77
2023/07/19 13:07:46;;;;;;;2.37;1.73;;;;;;;;;;4157268;34;20114;-77
2023/07/19 13:10:13;;;;;;;1.95;1.85;;;;;;;;;;4158971;34;20052;-77
2023/07/19 13:12:41;;;;;;;3.95;1.77;;;;;;;;;;4156475;34;20049;-77
2023/07/19 13:15:07;;;;;;;3.37;1.52;;;;;;;;;;4155834;34;20056;-78
2023/07/19 13:17:34;;;;;;;6.78;1.70;;;;;;;;;;4158599;34;20411;-76
2023/07/19 13:20:01;;;;;;;5.15;1.60;;;;;;;;;;4140098;34;20053;-77
2023/07/19 13:22:28;;;;;;;8.93;1.85;;;;;;;;;;4150093;34;20183;-78
2023/07/19 13:24:55;;;;;;;6.85;1.75;;;;;;;;;;4143081;34;20079;-77
2023/07/19 13:27:21;;;;;;;1.67;1.60;;;;;;;;;;4148532;34;20057;-77
2023/07/19 13:29:47;;;;;;;5.62;1.83;;;;;;;;;;4139863;34;20062;-79
2023/07/19 13:32:13;;;;;;;1.77;1.33;;;;;;;;;;4150138;34;20070;-78
2023/07/19 13:34:40;;;;;;;2.28;1.87;;;;;;;;;;4153230;34;20041;-77
2023/07/19 13:37:07;;;;;;;1.60;1.50;;;;;;;;;;4125985;34;20055;-78
2023/07/19 13:39:43;;;;;;;2.05;1.30;;;;;;;;;;4126447;34;20564;-78
2023/07/19 13:42:09;;;;;;;3.87;2.15;;;;;;;;;;4126777;34;20443;-77
2023/07/19 13:44:36;;;;;;;5.85;1.87;;;;;;;;;;4099533;35;20083;-79
2023/07/19 13:47:02;;;;;;;1.75;1.42;;;;;;;;;;4071504;35;20034;-78
2023/07/19 13:49:29;;;;;;;3.62;1.87;;;;;;;;;;4060560;35;20076;-78
2023/07/19 13:51:56;;;;;;;3.20;1.60;;;;;;;;;;4084098;35;20076;-77
2023/07/19 13:54:23;;;;;;;2.47;1.65;;;;;;;;;;4086408;35;20058;-78
2023/07/19 13:56:49;;;;;;;3.40;1.50;;;;;;;;;;4086371;35;20047;-78
2023/07/19 13:59:16;;;;;;;1.85;1.65;;;;;;;;;;4098464;35;20119;-79
2023/07/19 14:01:42;;;;;;;3.60;1.55;;;;;;;;;;4096303;35;20073;-77
2023/07/19 14:04:08;;;;;;;1.50;1.40;;;;;;;;;;4086581;35;20058;-77
2023/07/19 14:06:34;;;;;;;2.60;1.50;;;;;;;;;;4090748;34;20046;-78
2023/07/19 14:09:01;;;;;;;6.25;1.60;;;;;;;;;;4121422;34;20389;-77
2023/07/19 14:11:29;;;;;;;3.95;1.65;;;;;;;;;;4125705;34;20053;-77
2023/07/19 14:13:55;;;;;;;5.78;1.35;;;;;;;;;;4116678;34;20098;-77
2023/07/19 14:16:21;;;;;;;6.35;1.40;;;;;;;;;;4136281;34;20519;-78
2023/07/19 14:18:48;;;;;;;9.50;1.55;;;;;;;;;;4161368;34;20158;-77
2023/07/19 14:21:14;;;;;;;5.05;1.90;;;;;;;;;;4179704;34;20043;-77
2023/07/19 14:23:40;;;;;;;3.90;2.80;;;;;;;;;;4168396;34;20371;-79
2023/07/19 14:26:07;;;;;;;3.80;1.83;;;;;;;;;;4179594;34;20052;-78
2023/07/19 14:28:33;;;;;;;1.55;1.45;;;;;;;;;;4180133;34;20044;-79
2023/07/19 14:30:59;;;;;;;1.58;1.48;;;;;;;;;;4152409;34;20337;-78
2023/07/19 14:33:27;;;;;;;5.78;1.80;;;;;;;;;;4153727;34;20086;-78
2023/07/19 14:35:54;;;;;;;9.38;1.80;;;;;;;;;;4151933;34;20088;-78
2023/07/19 14:38:22;;;;;;;1.65;1.55;;;;;;;;;;4166856;34;20056;-78
2023/07/19 14:40:50;;;;;;;3.15;1.85;;;;;;;;;;4177401;34;20112;-79
2023/07/19 14:43:16;;;;;;;2.62;1.35;;;;;;;;;;4179837;34;20409;-80
2023/07/19 14:45:42;;;;;;;2.40;1.70;;;;;;;;;;4177644;34;20032;-78
2023/07/19 14:48:09;;;;;;;1.62;1.52;;;;;;;;;;4188710;34;20091;-76
2023/07/19 14:50:35;;;;;;;3.37;1.60;;;;;;;;;;4180080;34;20047;-77
2023/07/19 14:53:01;;;;;;;1.37;1.35;;;;;;;;;;4185360;34;20052;-76
2023/07/19 14:55:27;;;;;;;6.55;1.50;;;;;;;;;;4193506;34;20040;-77
2023/07/19 14:57:54;;;;;;;12.98;1.80;;;;;;;;;;4179073;34;20096;-78
2023/07/19 15:00:20;;;;;;;3.83;1.35;;;;;;;;;;4188910;34;20454;-78
2023/07/19 15:02:46;;;;;;;3.12;1.55;;;;;;;;;;4179605;34;20078;-78
2023/07/19 15:05:13;;;;;;;8.07;1.37;;;;;;;;;;4179910;34;20063;-78
2023/07/19 15:07:43;;;;;;;1.67;1.58;;;;;;;;;;4178677;34;20043;-80
2023/07/19 15:10:09;;;;;;;7.50;2.33;;;;;;;;;;4179048;34;20043;-78
2023/07/19 15:12:37;;;;;;;2.78;1.80;;;;;;;;;;4179486;34;20102;-77
2023/07/19 15:15:04;;;;;;;3.42;1.58;;;;;;;;;;4179694;34;20110;-77
2023/07/19 15:17:31;;;;;;;1.73;1.62;;;;;;;;;;4179303;34;20464;-78
2023/07/19 15:19:58;;;;;;;8.93;1.62;;;;;;;;;;4199826;34;20127;-79
2023/07/19 15:22:25;;;;;;;9.05;3.22;;;;;;;;;;4206650;34;21017;-77
2023/07/19 15:24:51;;;;;;;4.50;1.50;;;;;;;;;;4207155;34;20047;-78
2023/07/19 15:27:18;;;;;;;2.30;2.10;;;;;;;;;;4211060;33;20047;-77
2023/07/19 15:29:44;;;;;;;2.12;1.67;;;;;;;;;;4234673;33;20034;-77
2023/07/19 15:32:11;;;;;;;2.15;1.67;;;;;;;;;;4232670;33;20076;-78
2023/07/19 15:34:37;;;;;;;1.60;1.33;;;;;;;;;;4223239;33;20070;-77
2023/07/19 15:37:03;;;;;;;5.37;2.12;;;;;;;;;;4222770;33;20492;-77
2023/07/19 15:39:33;;;;;;;1.27;1.27;;;;;;;;;;4206752;34;20421;-78
2023/07/19 15:41:59;;;;;;;1.55;1.40;;;;;;;;;;4206712;34;20043;-78
2023/07/19 15:44:25;;;;;;;1.90;1.62;;;;;;;;;;4191761;34;20040;-77
2023/07/19 15:46:52;;;;;;;1.40;1.30;;;;;;;;;;4193311;34;20087;-77
2023/07/19 15:49:19;;;;;;;1.87;1.75;;;;;;;;;;4193191;34;20479;-77
2023/07/19 15:51:45;;;;;;;4.70;1.70;;;;;;;;;;4178627;34;20224;-77
2023/07/19 15:54:11;;;;;;;1.50;1.40;;;;;;;;;;4179142;34;20077;-77
2023/07/19 15:56:38;;;;;;;3.25;2.28;;;;;;;;;;4164037;34;20237;-78
2023/07/19 15:59:04;;;;;;;4.07;1.75;;;;;;;;;;4166176;34;20113;-78
2023/07/19 16:01:30;;;;;;;4.85;1.48;;;;;;;;;;4176757;34;20056;-77
2023/07/19 16:03:57;;;;;;;4.60;1.35;;;;;;;;;;4151681;34;20074;-77
2023/07/19 16:06:23;;;;;;;5.25;1.98;;;;;;;;;;4151172;34;20074;-79
2023/07/19 16:08:49;;;;;;;5.22;2.33;;;;;;;;;;4136294;34;20037;-78
2023/07/19 16:11:16;;;;;;;1.95;1.85;;;;;;;;;;4138043;34;20053;-79
2023/07/19 16:13:42;;;;;;;1.73;1.70;;;;;;;;;;4152062;34;20059;-79
2023/07/19 16:16:08;;;;;;;6.00;1.48;;;;;;;;;;4153219;34;20048;-79
2023/07/19 16:18:34;;;;;;;1.77;1.67;;;;;;;;;;4139794;34;20134;-79
2023/07/19 16:21:01;;;;;;;4.12;1.70;;;;;;;;;;4138931;34;20049;-81
2023/07/19 16:23:27;;;;;;;1.40;1.40;;;;;;;;;;4140607;34;20053;-79
2023/07/19 16:25:54;;;;;;;6.07;1.65;;;;;;;;;;4141042;34;20994;-77
2023/07/19 16:28:20;;;;;;;3.28;1.42;;;;;;;;;;4140935;34;20072;-78
2023/07/19 16:30:46;;;;;;;1.73;1.62;;;;;;;;;;4140773;34;20061;-78
2023/07/19 16:33:12;;;;;;;1.42;1.33;;;;;;;;;;4139482;34;20041;-79
2023/07/19 16:35:39;;;;;;;1.67;1.67;;;;;;;;;;4159826;34;20093;-77
2023/07/19 16:38:09;;;;;;;1.45;1.35;;;;;;;;;;4167507;34;20052;-78
2023/07/19 16:40:35;;;;;;;;;;;;;;;;;;4168108;34;20115;-78
2023/07/19 16:43:01;;;;;;;4.35;1.62;;;;;;;;;;4167383;34;19950;-78